Shandaken, NY (12480)

1:59 AM EDT on July 26, 2016 (GMT -0400)
Big Indian | | Change Station

Elev 1315 ft 42.09 °N, 74.45 °W | Updated 12 minutes ago

Mostly Cloudy
Mostly Cloudy
62.1 °F
Feels Like 62.1 °F
N
2.0
Wind Variable Wind from South
Gusts 3.0 mph

Today
High -- | Low -- °F
--% Chance of Precip.
Yesterday
High -- | Low -- °F
Precip. -- in
Pressure 29.94 in
Visibility 2.5 miles
Clouds Mostly Cloudy 200 ft
Dew Point 62 °F
Humidity 98%
Rainfall 0.00 in
Snow Depth Not available.
5:45 AM 8:22 PM
Waning Gibbous, 58% visible
METAR KMSV 260555Z AUTO 29004KT 2 1/2SM BKN002 19/18 A2994 RMK AO1 10210 20180 57003
Pressure 29.94 in
Visibility 2.5 miles
Clouds Mostly Cloudy 200 ft
Dew Point 62 °F
Humidity 98%
Rainfall 0.00 in
Snow Depth Not available.
5:45 AM 8:22 PM
Waning Gibbous, 58% visible
METAR KMSV 260555Z AUTO 29004KT 2 1/2SM BKN002 19/18 A2994 RMK AO1 10210 20180 57003

10-Day Weather Forecast

Almanac

Astronomy

Jul. 26, 2016 Rise Set
Actual Time
Civil Twilight
Nautical Twilight
Astronomical Twilight
Moon
Length of Visible Light
Length of Day
Tomorrow will be .
, % of the Moon is Illuminated

Today's Extremes

State Highs State Lows

Community

WunderPhotos

Upload Photos

1,927,547 photos uploaded!

WunderBlog® & News

Nearby

Air Quality

  Air Quality AQ Index Pollutant
Not available.

Snow Depth

Station Depth Elevation

Earthquake Activity

City Distance Mag. Time & Date
Minimum magnitude displayed is 2.5.

Coastal Water Temperatures

Place Temperature

Stations

Nearby Weather Stations

Station Location Temp. Windchill Dew Point Humidity Wind Precip. Elev Updated Type
                   

Watches & Warnings

There are currently no watches in effect.